createdAt,value
2024-05-09T00:01:22.198Z,100695.78
2024-05-09T00:04:24.082Z,100700.88
2024-05-09T00:07:25.940Z,100698.00
2024-05-09T00:10:35.432Z,100696.63
2024-05-09T00:13:39.727Z,100700.88
2024-05-09T00:16:41.582Z,100691.56
2024-05-09T00:19:44.001Z,100689.53
2024-05-09T00:22:45.902Z,100686.63
2024-05-09T00:25:47.851Z,100691.22
2024-05-09T00:28:49.777Z,100684.28
2024-05-09T00:31:51.714Z,100693.81
2024-05-09T00:34:53.619Z,100688.56
2024-05-09T00:37:55.565Z,100686.31
2024-05-09T00:40:57.465Z,100689.84
2024-05-09T00:44:00.144Z,100687.34
2024-05-09T00:47:02.105Z,100689.22
2024-05-09T00:50:07.593Z,100690.72
2024-05-09T00:53:17.398Z,100692.09
2024-05-09T00:56:22.186Z,100695.97
2024-05-09T00:59:25.195Z,100690.41
2024-05-09T01:02:28.788Z,100689.03
2024-05-09T01:05:32.185Z,100683.63
2024-05-09T01:08:34.288Z,100688.19
2024-05-09T01:11:37.335Z,100680.06
2024-05-09T01:14:39.278Z,100683.94
2024-05-09T01:17:41.734Z,100674.44
2024-05-09T01:20:45.229Z,100683.97
2024-05-09T01:23:47.705Z,100687.53
2024-05-09T01:26:50.377Z,100683.28
2024-05-09T01:29:52.227Z,100683.09
2024-05-09T01:32:54.280Z,100680.88
2024-05-09T01:35:56.344Z,100683.75
2024-05-09T01:38:58.601Z,100664.66
2024-05-09T01:42:00.519Z,100690.38
2024-05-09T01:45:02.365Z,100687.31
2024-05-09T01:48:04.942Z,100685.66
2024-05-09T01:51:07.067Z,100684.44
2024-05-09T01:54:08.917Z,100683.09
2024-05-09T01:57:10.813Z,100684.53
2024-05-09T02:00:15.687Z,100684.19
2024-05-09T02:03:21.052Z,100686.75
2024-05-09T02:06:23.220Z,100689.63
2024-05-09T02:09:25.863Z,100688.06
2024-05-09T02:12:27.763Z,100685.59
2024-05-09T02:15:29.648Z,100682.22
2024-05-09T02:18:31.537Z,100684.94
2024-05-09T02:21:34.342Z,100683.56
2024-05-09T02:24:36.245Z,100681.03
2024-05-09T02:27:38.071Z,100688.97
2024-05-09T02:30:41.808Z,100679.78
2024-05-09T02:33:44.632Z,100681.88
2024-05-09T02:36:46.766Z,100676.47
2024-05-09T02:39:48.648Z,100693.16
2024-05-09T02:42:50.698Z,100676.88
2024-05-09T02:45:52.535Z,100691.09
2024-05-09T02:48:54.434Z,100688.59
2024-05-09T02:51:56.279Z,100690.72
2024-05-09T02:54:58.098Z,100690.72
2024-05-09T02:58:00.127Z,100683.59
2024-05-09T03:01:02.093Z,100692.97
2024-05-09T03:04:05.400Z,100689.72
2024-05-09T03:07:07.391Z,100688.06
2024-05-09T03:10:18.240Z,100685.34
2024-05-09T03:13:24.266Z,100687.50
2024-05-09T03:16:26.094Z,100686.47
2024-05-09T03:19:28.060Z,100691.06
2024-05-09T03:22:29.935Z,100688.38
2024-05-09T03:25:31.777Z,100688.59
2024-05-09T03:28:33.580Z,100688.16
2024-05-09T03:31:35.573Z,100671.84
2024-05-09T03:34:40.364Z,100692.09
2024-05-09T03:37:42.243Z,100691.03
2024-05-09T03:40:45.995Z,100691.59
2024-05-09T03:43:47.923Z,100691.03
2024-05-09T03:46:49.740Z,100692.78
2024-05-09T03:49:51.661Z,100699.66
2024-05-09T03:52:54.593Z,100695.78
2024-05-09T03:55:59.651Z,100691.22
2024-05-09T03:59:01.660Z,100698.88
2024-05-09T04:02:05.541Z,100692.94
2024-05-09T04:05:08.580Z,100707.78
2024-05-09T04:08:11.202Z,100705.88
2024-05-09T04:11:13.502Z,100710.09
2024-05-09T04:14:15.410Z,100709.78
2024-05-09T04:17:17.287Z,100719.47
2024-05-09T04:20:29.189Z,100714.88
2024-05-09T04:23:39.451Z,100713.66
2024-05-09T04:26:41.535Z,100719.31
2024-05-09T04:29:43.373Z,100718.22
2024-05-09T04:32:45.433Z,100718.56
2024-05-09T04:35:49.474Z,100722.53
2024-05-09T04:38:51.469Z,100729.47
2024-05-09T04:41:53.476Z,100730.63
2024-05-09T04:44:58.284Z,100731.66
2024-05-09T04:48:01.274Z,100731.59
2024-05-09T04:51:04.203Z,100733.81
2024-05-09T04:54:08.381Z,100735.41
2024-05-09T04:57:12.429Z,100745.56
2024-05-09T05:00:18.079Z,100753.34
2024-05-09T05:03:27.655Z,100744.38
2024-05-09T05:06:30.286Z,100746.59
2024-05-09T05:09:32.107Z,100748.25
2024-05-09T05:12:52.723Z,100748.28
2024-05-09T05:15:58.471Z,100762.41
2024-05-09T05:19:00.806Z,100758.16
2024-05-09T05:22:02.790Z,100761.72
2024-05-09T05:25:04.976Z,100762.25
2024-05-09T05:28:07.112Z,100758.88
2024-05-09T05:31:08.938Z,100765.31
2024-05-09T05:34:10.865Z,100760.25
2024-05-09T05:37:12.724Z,100762.63
2024-05-09T05:40:24.734Z,100764.84
2024-05-09T05:43:30.375Z,100769.44
2024-05-09T05:46:32.291Z,100769.44
2024-05-09T05:49:34.631Z,100778.59
2024-05-09T05:52:36.521Z,100773.19
2024-05-09T05:55:42.848Z,100778.13
2024-05-09T05:58:44.854Z,100774.22
2024-05-09T06:01:47.672Z,100776.59
2024-05-09T06:04:49.625Z,100775.41
2024-05-09T06:07:51.622Z,100782.69
2024-05-09T06:10:53.594Z,100785.31
2024-05-09T06:13:55.487Z,100783.94
2024-05-09T06:16:58.501Z,100785.63
2024-05-09T06:20:00.571Z,100793.63
2024-05-09T06:23:03.451Z,100801.44
2024-05-09T06:26:05.476Z,100796.31
2024-05-09T06:29:07.716Z,100803.31
2024-05-09T06:32:09.684Z,100793.06
2024-05-09T06:35:11.643Z,100794.31
2024-05-09T06:38:13.668Z,100796.69
2024-05-09T06:41:15.658Z,100801.38
2024-05-09T06:44:17.589Z,100808.69
2024-05-09T06:47:19.552Z,100820.13
2024-05-09T06:50:24.314Z,100818.59
2024-05-09T06:53:29.845Z,100824.03
2024-05-09T06:56:31.843Z,100820.78
2024-05-09T06:59:33.856Z,100821.28
2024-05-09T07:02:35.951Z,100813.56
2024-05-09T07:05:38.138Z,100817.09
2024-05-09T07:08:41.167Z,100814.41
2024-05-09T07:11:43.155Z,100818.06
2024-05-09T07:14:45.183Z,100819.34
2024-05-09T07:17:47.202Z,100818.59
2024-05-09T07:20:50.234Z,100817.47
2024-05-09T07:23:52.729Z,100815.44
2024-05-09T07:26:54.745Z,100815.50
2024-05-09T07:29:57.852Z,100813.09
2024-05-09T07:33:00.174Z,100810.88
2024-05-09T07:36:02.442Z,100809.13
2024-05-09T07:39:05.769Z,100816.97
2024-05-09T07:42:07.739Z,100807.94
2024-05-09T07:45:24.160Z,100811.66
2024-05-09T07:50:01.413Z,100798.50
2024-05-09T07:53:21.157Z,100810.22
2024-05-09T07:55:15.504Z,100809.31
2024-05-09T07:58:17.511Z,100810.63
2024-05-09T08:01:20.545Z,100812.69
2024-05-09T08:04:23.691Z,100816.88
2024-05-09T08:07:29.178Z,100816.88
2024-05-09T08:10:31.081Z,100819.75
2024-05-09T08:13:32.977Z,100817.59
2024-05-09T08:16:34.871Z,100820.69
2024-05-09T08:19:37.797Z,100824.03
2024-05-09T08:22:39.690Z,100815.38
2024-05-09T08:25:41.514Z,100815.28
2024-05-09T08:28:43.345Z,100816.59
2024-05-09T08:31:45.248Z,100823.47
2024-05-09T08:34:47.230Z,100817.69
2024-05-09T08:37:50.039Z,100822.78
2024-05-09T08:40:52.408Z,100820.53
2024-05-09T08:43:54.629Z,100813.72
2024-05-09T08:46:56.981Z,100810.63
2024-05-09T08:50:03.163Z,100808.75
2024-05-09T08:53:06.549Z,100813.94
2024-05-09T08:56:11.842Z,100816.94
2024-05-09T08:59:21.221Z,100805.59
2024-05-09T09:02:24.428Z,100809.00
2024-05-09T09:05:31.758Z,100804.47
2024-05-09T09:08:34.058Z,100799.50
2024-05-09T09:11:35.948Z,100800.78
2024-05-09T09:14:37.796Z,100799.53
2024-05-09T09:17:39.795Z,100786.63
2024-05-09T09:20:42.228Z,100794.03
2024-05-09T09:23:44.075Z,100787.69
2024-05-09T09:26:45.882Z,100795.53
2024-05-09T09:29:48.804Z,100787.75
2024-05-09T09:32:50.714Z,100795.53
2024-05-09T09:35:52.616Z,100798.28
2024-05-09T09:38:56.692Z,100801.47
2024-05-09T09:42:03.160Z,100787.47
2024-05-09T09:45:06.876Z,100806.88
2024-05-09T09:48:10.613Z,100797.56
2024-05-09T09:51:15.118Z,100798.00
2024-05-09T09:54:18.464Z,100796.28
2024-05-09T09:57:21.545Z,100794.56
2024-05-09T10:00:32.493Z,100794.34
2024-05-09T10:03:36.021Z,100785.69
2024-05-09T10:06:48.842Z,100791.66
2024-05-09T10:09:56.206Z,100787.66
2024-05-09T10:13:05.414Z,100783.50
2024-05-09T10:16:11.505Z,100776.47
2024-05-09T10:19:27.176Z,100786.38
2024-05-09T10:22:29.837Z,100774.94
2024-05-09T10:25:31.914Z,100773.91
2024-05-09T10:28:36.908Z,100781.38
2024-05-09T10:31:42.051Z,100767.34
2024-05-09T10:34:47.167Z,100771.56
2024-05-09T10:37:51.134Z,100771.75
2024-05-09T10:40:57.059Z,100765.91
2024-05-09T10:43:58.893Z,100762.50
2024-05-09T10:47:00.823Z,100766.13
2024-05-09T10:50:04.844Z,100753.34
2024-05-09T10:53:07.829Z,100760.88
2024-05-09T10:56:10.404Z,100765.09
2024-05-09T10:59:12.903Z,100749.28
2024-05-09T11:02:17.296Z,100762.56
2024-05-09T11:05:19.920Z,100754.03
2024-05-09T11:08:23.728Z,100749.50
2024-05-09T11:11:26.690Z,100746.81
2024-05-09T11:14:28.630Z,100747.19
2024-05-09T11:17:37.206Z,100743.13
2024-05-09T11:20:39.161Z,100725.34
2024-05-09T11:23:41.698Z,100733.09
2024-05-09T11:26:43.659Z,100745.06
2024-05-09T11:29:47.408Z,100727.81
2024-05-09T11:32:49.939Z,100722.72
2024-05-09T11:35:51.864Z,100730.91
2024-05-09T11:38:53.740Z,100722.16
2024-05-09T11:41:55.594Z,100723.59
2024-05-09T11:44:57.507Z,100720.97
2024-05-09T11:47:59.415Z,100731.66
2024-05-09T11:51:01.316Z,100714.72
2024-05-09T11:54:03.182Z,100721.47
2024-05-09T11:57:05.182Z,100717.22
2024-05-09T12:00:09.628Z,100720.09
2024-05-09T12:03:13.804Z,100711.09
2024-05-09T12:06:15.868Z,100707.47
2024-05-09T12:09:18.286Z,100704.19
2024-05-09T12:12:20.128Z,100713.69
2024-05-09T12:15:22.001Z,100697.00
2024-05-09T12:18:24.043Z,100697.72
2024-05-09T12:21:26.103Z,100691.34
2024-05-09T12:24:30.602Z,100698.91
2024-05-09T12:27:32.666Z,100690.25
2024-05-09T12:30:38.798Z,100687.94
2024-05-09T12:33:42.687Z,100689.81
2024-05-09T12:36:44.693Z,100687.69
2024-05-09T12:39:46.639Z,100679.94
2024-05-09T12:42:49.957Z,100677.84
2024-05-09T12:45:51.869Z,100678.06
2024-05-09T12:48:54.047Z,100680.25
2024-05-09T12:51:56.192Z,100680.81
2024-05-09T12:54:58.065Z,100676.06
2024-05-09T12:57:59.988Z,100676.59
2024-05-09T13:01:02.107Z,100675.84
2024-05-09T13:04:04.495Z,100672.97
2024-05-09T13:07:08.025Z,100673.06
2024-05-09T13:10:13.923Z,100666.00
2024-05-09T13:13:18.367Z,100663.50
2024-05-09T13:16:20.465Z,100654.59
2024-05-09T13:19:22.577Z,100666.84
2024-05-09T13:22:24.545Z,100661.56
2024-05-09T13:25:26.406Z,100653.03
2024-05-09T13:28:28.493Z,100644.56
2024-05-09T13:31:30.473Z,100656.09
2024-05-09T13:34:32.447Z,100652.97
2024-05-09T13:37:34.499Z,100645.56
2024-05-09T13:40:36.794Z,100649.06
2024-05-09T13:43:38.934Z,100634.25
2024-05-09T13:46:42.045Z,100639.50
2024-05-09T13:49:44.079Z,100635.38
2024-05-09T13:52:46.139Z,100639.78
2024-05-09T13:55:48.762Z,100627.47
2024-05-09T13:58:51.229Z,100624.69
2024-05-09T14:01:53.127Z,100622.22
2024-05-09T14:04:55.138Z,100626.34
2024-05-09T14:07:57.769Z,100615.78
2024-05-09T14:10:59.744Z,100622.78
2024-05-09T14:14:02.041Z,100622.16
2024-05-09T14:17:04.028Z,100622.53
2024-05-09T14:20:09.605Z,100618.47
2024-05-09T14:23:14.972Z,100609.94
2024-05-09T14:26:17.602Z,100615.47
2024-05-09T14:29:19.522Z,100614.06
2024-05-09T14:32:21.587Z,100609.22
2024-05-09T14:35:23.481Z,100617.19
2024-05-09T14:38:27.568Z,100610.25
2024-05-09T14:41:29.446Z,100608.47
2024-05-09T14:44:31.313Z,100603.19
2024-05-09T14:47:33.661Z,100599.94
2024-05-09T14:50:38.846Z,100604.25
2024-05-09T14:53:42.388Z,100603.84
2024-05-09T14:56:44.393Z,100597.47
2024-05-09T14:59:46.203Z,100601.69
2024-05-09T15:02:49.911Z,100600.50
2024-05-09T15:05:52.417Z,100599.16
2024-05-09T15:08:57.086Z,100601.41
2024-05-09T15:11:58.955Z,100590.22
2024-05-09T15:15:00.786Z,100592.41
2024-05-09T15:18:04.922Z,100591.72
2024-05-09T15:21:07.040Z,100582.91
2024-05-09T15:24:08.925Z,100586.22
2024-05-09T15:27:13.061Z,100576.19
2024-05-09T15:30:18.133Z,100577.81
2024-05-09T15:33:22.590Z,100584.22
2024-05-09T15:36:24.603Z,100572.44
2024-05-09T15:39:30.155Z,100565.06
2024-05-09T15:42:32.020Z,100578.06
2024-05-09T15:45:34.647Z,100576.50
2024-05-09T15:48:37.178Z,100581.53
2024-05-09T15:51:39.738Z,100582.50
2024-05-09T15:54:41.618Z,100581.63
2024-05-09T15:57:46.114Z,100576.38
2024-05-09T16:00:50.498Z,100572.03
2024-05-09T16:03:53.993Z,100590.13
2024-05-09T16:06:56.124Z,100586.38
2024-05-09T16:09:58.790Z,100584.66
2024-05-09T16:13:00.838Z,100575.00
2024-05-09T16:16:04.136Z,100574.00
2024-05-09T16:19:06.261Z,100579.75
2024-05-09T16:22:08.216Z,100584.44
2024-05-09T16:25:10.235Z,100578.41
2024-05-09T16:28:12.479Z,100588.97
2024-05-09T16:31:14.452Z,100575.16
2024-05-09T16:34:17.757Z,100582.63
2024-05-09T16:37:19.724Z,100591.66
2024-05-09T16:40:29.799Z,100585.72
2024-05-09T16:43:38.555Z,100590.03
2024-05-09T16:46:42.861Z,100590.56
2024-05-09T16:49:44.983Z,100591.84
2024-05-09T16:52:46.788Z,100582.91
2024-05-09T16:55:48.827Z,100589.66
2024-05-09T16:58:50.953Z,100594.41
2024-05-09T17:01:52.900Z,100588.34
2024-05-09T17:04:54.807Z,100583.88
2024-05-09T17:07:57.339Z,100588.41
2024-05-09T17:10:59.348Z,100580.38
2024-05-09T17:14:01.496Z,100595.91
2024-05-09T17:17:03.569Z,100598.28
2024-05-09T17:20:08.578Z,100596.47
2024-05-09T17:23:14.766Z,100601.84
2024-05-09T17:26:17.062Z,100593.50
2024-05-09T17:29:21.601Z,100598.06
2024-05-09T17:32:23.606Z,100586.25
2024-05-09T17:35:25.490Z,100597.56
2024-05-09T17:38:27.404Z,100601.19
2024-05-09T17:41:29.218Z,100600.88
2024-05-09T17:44:31.094Z,100605.00
2024-05-09T17:47:36.104Z,100599.88
2024-05-09T17:50:38.561Z,100610.28
2024-05-09T17:53:40.561Z,100609.91
2024-05-09T17:56:42.413Z,100619.34
2024-05-09T17:59:44.840Z,100617.72
2024-05-09T18:02:46.711Z,100626.81
2024-05-09T18:05:48.782Z,100627.66
2024-05-09T18:08:50.809Z,100624.91
2024-05-09T18:11:52.650Z,100628.25
2024-05-09T18:14:54.688Z,100632.66
2024-05-09T18:17:56.889Z,100635.31
2024-05-09T18:20:58.889Z,100640.28
2024-05-09T18:24:00.728Z,100645.03
2024-05-09T18:27:02.970Z,100648.44
2024-05-09T18:30:09.430Z,100655.84
2024-05-09T18:33:14.052Z,100656.69
2024-05-09T18:36:16.178Z,100664.41
2024-05-09T18:39:17.983Z,100666.84
2024-05-09T18:42:19.906Z,100662.84
2024-05-09T18:45:21.768Z,100675.25
2024-05-09T18:48:23.722Z,100680.50
2024-05-09T18:51:25.757Z,100681.50
2024-05-09T18:54:27.585Z,100684.44
2024-05-09T18:57:29.475Z,100696.75
2024-05-09T19:00:35.954Z,100697.72
2024-05-09T19:03:40.926Z,100698.28
2024-05-09T19:06:43.118Z,100704.09
2024-05-09T19:09:45.523Z,100703.34
2024-05-09T19:12:47.454Z,100700.00
2024-05-09T19:15:49.371Z,100709.91
2024-05-09T19:18:51.708Z,100717.94
2024-05-09T19:21:54.011Z,100724.66
2024-05-09T19:24:58.550Z,100729.66
2024-05-09T19:28:01.220Z,100727.97
2024-05-09T19:31:03.553Z,100734.81
2024-05-09T19:34:05.483Z,100735.47
2024-05-09T19:37:07.632Z,100741.25
2024-05-09T19:40:14.876Z,100742.94
2024-05-09T19:43:23.154Z,100742.25
2024-05-09T19:46:25.654Z,100745.47
2024-05-09T19:49:27.724Z,100764.66
2024-05-09T19:52:29.656Z,100754.63
2024-05-09T19:55:31.519Z,100767.34
2024-05-09T19:58:33.555Z,100759.59
2024-05-09T20:01:35.656Z,100763.53
2024-05-09T20:04:37.691Z,100753.84
2024-05-09T20:07:39.637Z,100756.81
2024-05-09T20:10:41.573Z,100761.97
2024-05-09T20:13:43.459Z,100768.31
2024-05-09T20:16:45.254Z,100720.81
2024-05-09T20:19:47.183Z,100775.47
2024-05-09T20:22:49.077Z,100775.41
2024-05-09T20:25:50.896Z,100776.28
2024-05-09T20:28:52.778Z,100776.31
2024-05-09T20:31:54.620Z,100786.47
2024-05-09T20:34:56.976Z,100791.41
2024-05-09T20:37:59.235Z,100789.19
2024-05-09T20:41:01.290Z,100791.75
2024-05-09T20:44:03.621Z,100790.88
2024-05-09T20:47:05.553Z,100789.78
2024-05-09T20:50:13.677Z,100798.84
2024-05-09T20:53:22.190Z,100792.63
2024-05-09T20:56:25.073Z,100801.25
2024-05-09T20:59:26.907Z,100797.44
2024-05-09T21:02:28.928Z,100804.25
2024-05-09T21:05:30.950Z,100801.34
2024-05-09T21:08:32.838Z,100800.63
2024-05-09T21:11:34.707Z,100803.91
2024-05-09T21:14:36.637Z,100808.72
2024-05-09T21:17:38.478Z,100811.09
2024-05-09T21:20:40.434Z,100802.94
2024-05-09T21:23:42.319Z,100811.78
2024-05-09T21:26:44.564Z,100811.44
2024-05-09T21:29:46.381Z,100814.28
2024-05-09T21:32:48.409Z,100814.16
2024-05-09T21:35:50.424Z,100813.94
2024-05-09T21:38:52.300Z,100819.53
2024-05-09T21:41:54.109Z,100816.91
2024-05-09T21:44:55.984Z,100825.41
2024-05-09T21:47:58.016Z,100821.13
2024-05-09T21:50:59.940Z,100826.88
2024-05-09T21:54:01.777Z,100825.47
2024-05-09T21:57:06.513Z,100818.75
2024-05-09T22:00:24.861Z,100830.56
2024-05-09T22:03:34.577Z,100832.84
2024-05-09T22:06:36.617Z,100829.44
2024-05-09T22:09:40.255Z,100832.44
2024-05-09T22:12:42.232Z,100827.03
2024-05-09T22:15:44.099Z,100835.59
2024-05-09T22:18:46.159Z,100836.84
2024-05-09T22:21:49.158Z,100836.56
2024-05-09T22:24:51.123Z,100840.25
2024-05-09T22:27:52.969Z,100835.84
2024-05-09T22:30:55.550Z,100838.56
2024-05-09T22:33:57.603Z,100841.69
2024-05-09T22:36:59.645Z,100844.53
2024-05-09T22:40:03.950Z,100841.78
2024-05-09T22:43:07.305Z,100847.19
2024-05-09T22:46:09.208Z,100843.06
2024-05-09T22:49:11.222Z,100844.16
2024-05-09T22:52:13.319Z,100836.28
2024-05-09T22:55:15.331Z,100843.81
2024-05-09T22:58:18.144Z,100842.28
2024-05-09T23:01:20.834Z,100841.16
2024-05-09T23:04:23.377Z,100845.75
2024-05-09T23:07:25.345Z,100850.34
2024-05-09T23:10:32.628Z,100850.88
2024-05-09T23:13:38.355Z,100846.91
2024-05-09T23:16:40.231Z,100844.63
2024-05-09T23:19:42.920Z,100861.19
2024-05-09T23:22:46.213Z,100851.06
2024-05-09T23:25:49.466Z,100857.16
2024-05-09T23:28:51.254Z,100842.50
2024-05-09T23:31:53.440Z,100857.09
2024-05-09T23:34:55.412Z,100857.06
2024-05-09T23:37:57.340Z,100853.81
2024-05-09T23:40:59.207Z,100852.66
2024-05-09T23:44:01.053Z,100850.47
2024-05-09T23:47:03.312Z,100859.16
2024-05-09T23:50:13.745Z,100855.41
2024-05-09T23:53:18.399Z,100836.59
2024-05-09T23:56:21.597Z,100846.97
2024-05-09T23:59:23.438Z,100842.91
